Stations météo

réclame
Mon MeteoGroup
Cerezo De Arriba, Espagne (8143): Température de l'air & dewpoint: 13.06.2018 20:00:00 - 19.06.2018 20:00:00 (CEST)Cerezo De Arriba, Espagne (8143): Vitesse du vent & gusts: 13.06.2018 20:00:00 - 19.06.2018 20:00:00 (CEST)Cerezo De Arriba, Espagne (8143): Direction du vent: 13.06.2018 20:00:00 - 19.06.2018 20:00:00 (CEST)Cerezo De Arriba, Espagne (8143): visibility: 13.06.2018 20:00:00 - 19.06.2018 20:00:00 (CEST)Cerezo De Arriba, Espagne (8143): Ensoleillement: 13.06.2018 20:00:00 - 19.06.2018 20:00:00 (CEST)Cerezo De Arriba, Espagne (8143): Quantités de précipitations: 13.06.2018 20:00:00 - 19.06.2018 20:00:00 (CEST)
Date & Time tt [°C] td [°C] ff [km/h] ff [knt] fx [km/h] fx [knt] dd vv [km] sd [min] rr [mm]
19.06.2018 20:00:00 - - - - - - - - - -
19.06.2018 19:00:00 21,9 8,4 9 5 32 17 NNW 20 60 0,0
19.06.2018 18:00:00 22,5 8,3 12 6 31 17 NNE 20 60 0,0
19.06.2018 17:00:00 21,9 8,8 15 8 39 21 NNW 20 60 0,0
19.06.2018 16:00:00 21,7 8,3 13 7 32 17 N 20 60 0,0
19.06.2018 15:00:00 21,4 8,7 11 6 33 18 N 20 60 0,0
19.06.2018 14:00:00 20,5 7,1 5 3 23 12 WSW 20 60 -
19.06.2018 13:00:00 19,2 7,6 13 7 38 20 SSE 20 60 0,0
19.06.2018 12:00:00 17,6 6,4 27 14 41 22 SSW 20 60 0,0
19.06.2018 11:00:00 17,0 6,5 25 13 49 26 S 20 60 0,0
19.06.2018 10:00:00 16,0 6,4 33 18 51 28 S 20 60 0,0
19.06.2018 09:00:00 15,5 3,6 33 18 45 24 S 20 60 0,0
19.06.2018 08:00:00 15,3 0,0 6 4 17 9 S 17 32 -
19.06.2018 07:00:00 12,2 -1,7 9 5 19 11 S 20 0 0,0
19.06.2018 06:00:00 12,7 -6,4 14 8 24 13 SE 20 0 0,0
19.06.2018 05:00:00 13,7 -6,0 23 12 30 16 SSE 20 0 0,0
19.06.2018 04:00:00 13,3 -3,6 20 11 30 16 SE 20 0 0,0
19.06.2018 03:00:00 13,3 6,2 10 6 16 9 SSE 20 0 0,0
19.06.2018 02:00:00 14,5 6,5 8 4 14 7 ESE 20 0 -
19.06.2018 01:00:00 - - - - - - - - - -
19.06.2018 00:00:00 13,7 5,8 10 5 13 7 SSE 20 0 0,0
18.06.2018 23:00:00 13,4 7,6 4 2 15 8 SSE 20 0 0,0
18.06.2018 22:00:00 14,2 9,8 4 2 22 12 NE 20 19 0,0
18.06.2018 21:00:00 16,4 9,6 11 6 26 14 N 20 60 0,0
18.06.2018 20:00:00 18,2 9,3 16 9 28 15 N 20 58 -
18.06.2018 19:00:00 19,8 9,3 13 7 31 17 N 20 59 0,0
18.06.2018 18:00:00 20,1 9,0 16 8 30 16 N 20 60 0,0
18.06.2018 17:00:00 20,0 8,4 14 8 32 17 N 20 60 0,0
18.06.2018 16:00:00 19,7 8,9 13 7 31 17 N 20 60 0,0
18.06.2018 15:00:00 19,2 8,0 14 7 31 17 N 20 60 0,0
18.06.2018 14:00:00 18,4 8,9 10 6 32 18 NNE 20 60 -
18.06.2018 13:00:00 17,1 9,3 17 9 34 18 N 20 60 0,0
18.06.2018 12:00:00 17,6 7,6 16 9 32 17 NNE 20 60 0,0
18.06.2018 11:00:00 17,0 6,5 11 6 24 13 NNE 20 60 0,0
18.06.2018 10:00:00 16,6 5,0 7 4 18 10 E 20 60 0,0
18.06.2018 09:00:00 14,9 3,4 10 6 23 12 E 20 60 0,0
18.06.2018 08:00:00 13,3 3,6 5 3 15 8 SSE 20 33 -
18.06.2018 07:00:00 11,1 3,8 5 3 11 6 SE 20 0 0,0
18.06.2018 06:00:00 11,7 3,2 7 4 12 7 SSE 20 0 0,0
18.06.2018 05:00:00 12,0 3,2 7 4 18 10 SSE 20 0 0,0
18.06.2018 04:00:00 12,8 2,9 8 5 16 9 ESE 20 0 0,0
18.06.2018 03:00:00 12,8 4,3 7 4 19 10 E 20 0 0,0
18.06.2018 02:00:00 12,6 2,5 9 5 24 13 E 20 0 -
18.06.2018 01:00:00 12,6 3,0 8 4 18 10 ESE 20 0 0,0
18.06.2018 00:00:00 12,6 4,1 7 4 17 9 ESE 20 0 0,0
17.06.2018 23:00:00 11,4 5,0 4 2 12 7 SE 20 0 0,0
17.06.2018 22:00:00 13,5 3,6 4 2 21 12 NW 20 19 0,0
17.06.2018 21:00:00 16,3 6,1 13 7 26 14 N 20 60 0,0
17.06.2018 20:00:00 17,7 3,2 9 5 29 15 N 20 60 -
17.06.2018 19:00:00 18,1 -0,3 13 7 30 16 NNW 20 60 0,0
17.06.2018 18:00:00 18,4 -2,5 16 8 32 17 NNW 20 60 0,0
17.06.2018 17:00:00 18,0 2,7 13 7 39 21 N 20 60 0,0
17.06.2018 16:00:00 18,2 6,4 14 7 32 17 N 20 60 0,0
17.06.2018 15:00:00 17,7 7,4 15 8 35 19 N 20 60 0,0
17.06.2018 14:00:00 16,8 8,0 18 10 37 20 N 20 59 -
17.06.2018 13:00:00 17,2 8,1 13 7 32 17 N 20 60 0,0
17.06.2018 12:00:00 16,5 8,3 15 8 28 15 N 20 60 0,0
17.06.2018 11:00:00 16,4 7,0 10 5 24 13 N 20 60 0,0
17.06.2018 10:00:00 16,9 7,8 5 3 13 7 E 20 60 0,0
17.06.2018 09:00:00 15,9 7,1 5 3 13 7 SE 20 60 0,0
17.06.2018 08:00:00 13,5 5,9 8 4 13 7 SSE 20 31 -
17.06.2018 07:00:00 12,2 4,1 5 3 14 7 SSE 20 0 0,0
17.06.2018 06:00:00 11,5 3,9 9 5 19 10 SSE 20 0 0,0
17.06.2018 05:00:00 11,4 3,9 7 4 16 9 SE 20 0 0,0
17.06.2018 04:00:00 11,6 2,7 9 5 18 10 ESE 20 0 0,0
17.06.2018 03:00:00 11,5 -0,3 8 5 14 8 SSE 20 0 0,0
17.06.2018 02:00:00 11,6 -1,0 5 3 13 7 S 20 0 -
17.06.2018 01:00:00 12,0 1,9 5 3 14 8 SE 20 0 0,0
17.06.2018 00:00:00 11,9 0,9 8 5 13 7 SSE 20 0 0,0
16.06.2018 23:00:00 11,7 0,4 8 4 13 7 SSE 20 0 0,0
16.06.2018 22:00:00 12,7 4,6 4 2 17 9 SE 20 19 0,0
16.06.2018 21:00:00 16,8 2,1 6 4 20 11 N 20 60 0,0
16.06.2018 20:00:00 17,5 0,6 10 6 21 11 NNW 20 60 -
16.06.2018 19:00:00 18,3 0,4 9 5 29 15 NW 20 60 0,0
16.06.2018 18:00:00 18,1 1,1 13 7 34 19 N 20 60 0,0
16.06.2018 17:00:00 18,2 1,7 13 7 33 18 N 20 60 0,0
16.06.2018 16:00:00 18,2 6,4 11 6 35 19 NW 20 60 0,0
16.06.2018 15:00:00 18,1 8,9 12 6 31 17 N 20 49 0,0
16.06.2018 14:00:00 17,2 9,8 13 7 31 17 N 20 60 -
16.06.2018 13:00:00 16,3 8,8 13 7 33 18 N 20 60 0,0
16.06.2018 12:00:00 15,7 9,2 13 7 28 15 N 20 58 0,0
16.06.2018 11:00:00 15,7 8,9 11 6 25 13 N 20 60 0,0
16.06.2018 10:00:00 15,0 8,7 8 4 22 12 N 20 60 0,0
16.06.2018 09:00:00 14,9 9,4 5 3 15 8 ENE 20 60 0,0
16.06.2018 08:00:00 12,6 7,7 4 2 11 6 E 20 30 -
16.06.2018 07:00:00 10,0 5,8 6 3 16 8 SSE 20 0 0,0
16.06.2018 06:00:00 10,6 3,8 5 3 12 6 SSE 20 0 0,0
16.06.2018 05:00:00 10,6 5,9 8 4 13 7 SE 20 0 0,0
16.06.2018 04:00:00 10,4 3,2 9 5 12 7 SSE 20 0 0,0
16.06.2018 03:00:00 11,5 3,8 3 2 15 8 S 20 0 0,0
16.06.2018 02:00:00 10,9 6,7 3 2 9 5 SSW 20 0 -
16.06.2018 01:00:00 12,1 7,8 4 2 11 6 W 20 0 0,0
16.06.2018 00:00:00 11,8 8,3 5 3 12 6 S 20 0 0,0
15.06.2018 23:00:00 11,7 8,5 6 3 14 8 ESE 20 0 0,0
15.06.2018 22:00:00 12,8 10,2 4 2 20 11 ENE 20 18 0,0
15.06.2018 21:00:00 15,3 10,3 16 9 27 15 N 20 44 0,0
15.06.2018 20:00:00 16,0 10,0 13 7 36 19 N 20 36 -
15.06.2018 19:00:00 17,7 10,3 16 9 33 18 N 20 51 0,0
15.06.2018 18:00:00 17,6 8,9 16 9 31 17 NNW 20 36 0,0
15.06.2018 17:00:00 18,1 9,2 16 9 29 16 N 20 58 0,0
15.06.2018 16:00:00 18,1 7,8 11 6 26 14 N 20 60 0,0
15.06.2018 15:00:00 17,4 7,4 13 7 26 14 NNW 20 60 0,0
15.06.2018 14:00:00 17,0 8,4 14 8 28 15 N 20 60 -
15.06.2018 13:00:00 16,4 7,8 11 6 26 14 N 20 60 0,0
15.06.2018 12:00:00 15,7 6,7 11 6 30 16 N 20 60 0,0
15.06.2018 11:00:00 14,6 6,2 10 5 23 12 NNW 20 60 0,0
15.06.2018 10:00:00 14,3 6,4 6 4 15 8 N 20 60 0,0
15.06.2018 09:00:00 13,8 3,2 5 3 11 6 S 20 60 0,0
15.06.2018 08:00:00 12,7 1,9 3 2 10 6 E 20 31 -
15.06.2018 07:00:00 10,8 0,0 4 2 15 8 E 20 0 0,0
15.06.2018 06:00:00 10,2 -1,0 5 3 14 8 SSW 20 0 0,0
15.06.2018 05:00:00 10,4 -1,4 4 2 12 6 S 20 0 0,0
15.06.2018 04:00:00 11,4 0,0 6 3 17 9 E 20 0 0,0
15.06.2018 03:00:00 11,4 -0,5 6 3 18 10 NE 20 0 0,0
15.06.2018 02:00:00 11,3 0,4 5 3 25 13 W 20 0 -
15.06.2018 01:00:00 10,2 0,2 4 2 14 8 WSW 20 0 0,0
15.06.2018 00:00:00 - - - - - - - - - -
14.06.2018 23:00:00 9,6 5,5 3 1 12 7 SW 20 0 0,0
14.06.2018 22:00:00 11,0 4,8 6 3 16 9 NNW 20 18 0,0
14.06.2018 21:00:00 13,2 4,3 11 6 27 15 NNW 20 60 0,0
14.06.2018 20:00:00 14,2 4,8 11 6 25 13 NNW 20 60 -
14.06.2018 19:00:00 14,1 5,5 15 8 31 17 NNW 20 60 0,0
14.06.2018 18:00:00 14,3 5,3 16 8 29 16 N 20 60 0,0
14.06.2018 17:00:00 14,3 4,8 11 6 31 17 N 20 60 0,0
14.06.2018 16:00:00 14,2 4,5 13 7 32 18 N 20 60 0,0
14.06.2018 15:00:00 12,9 5,1 16 8 32 17 N 20 60 0,0
14.06.2018 14:00:00 13,1 6,2 12 6 26 14 N 20 60 -
14.06.2018 13:00:00 12,3 4,5 11 6 30 16 N 20 60 0,0
14.06.2018 12:00:00 11,8 3,2 8 4 24 13 NNE 20 60 0,0
14.06.2018 11:00:00 10,8 0,9 11 6 24 13 NNE 20 60 0,0
14.06.2018 10:00:00 10,2 -2,0 9 5 22 12 ESE 20 60 0,0
14.06.2018 09:00:00 10,1 1,5 7 4 20 11 N 20 60 0,0
14.06.2018 08:00:00 8,0 1,1 9 5 16 8 SE 20 30 -
14.06.2018 07:00:00 6,7 1,1 8 4 16 9 SE 20 0 0,0
14.06.2018 06:00:00 6,4 1,3 6 3 19 10 SSW 20 0 0,0
14.06.2018 05:00:00 6,1 2,1 6 3 15 8 S 20 0 0,0
14.06.2018 04:00:00 6,3 4,8 6 3 13 7 SSE 14 0 0,0
14.06.2018 03:00:00 5,9 4,3 4 2 12 7 S 20 0 0,0
14.06.2018 02:00:00 6,0 3,4 6 3 14 7 N 20 0 -
14.06.2018 01:00:00 6,5 2,9 4 2 14 8 NNW 20 0 0,0
14.06.2018 00:00:00 6,7 3,0 6 3 16 9 S 20 0 0,0
13.06.2018 23:00:00 6,6 4,8 5 3 16 9 N 20 0 0,0
13.06.2018 22:00:00 7,7 5,3 10 5 32 18 N 20 0 0,0
13.06.2018 21:00:00 9,2 5,6 14 8 29 16 NNE 20 32 0,0
13.06.2018 20:00:00 10,5 5,3 13 7 35 19 NNE 20 18 -

tt = Température de l'air
td = dewpoint
ff = Vitesse du vent
fx = gusts
dd = Direction du vent
vv = visibility
sd = Ensoleillement
rr = Quantités de précipitations

stations d'obs. à proximité